Time;durP1;ratioP1;P1;durP2;ratioP2;P2;SDS_P1;SDS_P2;PMS_P1;PMS_P2;Temp;Humidity;BMP_temperature;BMP_pressure;BME280_temperature;BME280_humidity;BME280_pressure;Samples;Min_cycle;Max_cycle;Signal;HPM_P1;HPM_P2
2021/08/19 00:00:56;;;;;;;7.53;3.10;;;18.40;99.90;;;;;;5056548;28;20195;-77
2021/08/19 00:03:22;;;;;;;4.77;2.97;;;18.30;99.90;;;;;;5056945;28;20633;-79
2021/08/19 00:05:47;;;;;;;6.43;3.27;;;18.20;99.90;;;;;;5074272;28;20298;-76
2021/08/19 00:08:13;;;;;;;6.27;3.03;;;18.20;99.90;;;;;;5073508;28;20536;-78
2021/08/19 00:10:39;;;;;;;8.80;3.13;;;18.10;99.90;;;;;;5073465;28;20255;-76
2021/08/19 00:13:05;;;;;;;5.93;3.20;;;18.10;99.90;;;;;;5074365;28;20620;-78
2021/08/19 00:15:31;;;;;;;8.73;3.47;;;18.20;99.90;;;;;;5056780;28;20263;-75
2021/08/19 00:17:57;;;;;;;4.57;2.80;;;18.20;99.90;;;;;;5075078;28;20576;-80
2021/08/19 00:20:22;;;;;;;9.10;3.53;;;18.20;99.90;;;;;;5074784;28;20526;-78
2021/08/19 00:22:48;;;;;;;7.03;3.77;;;18.20;99.90;;;;;;5074657;28;20204;-76
2021/08/19 00:25:14;;;;;;;4.87;2.80;;;18.10;99.90;;;;;;5074440;28;20594;-80
2021/08/19 00:27:39;;;;;;;6.43;3.10;;;18.20;99.90;;;;;;5056258;28;20192;-76
2021/08/19 00:30:06;;;;;;;5.00;2.90;;;18.20;99.90;;;;;;5073260;28;20173;-75
2021/08/19 00:32:32;;;;;;;6.80;3.27;;;18.10;99.90;;;;;;5056509;28;20191;-76
2021/08/19 00:34:58;;;;;;;4.70;2.87;;;18.10;99.90;;;;;;5074572;28;20545;-75
2021/08/19 00:37:23;;;;;;;7.30;3.03;;;18.00;99.90;;;;;;5074565;28;20172;-77
2021/08/19 00:39:49;;;;;;;7.00;3.07;;;18.10;99.90;;;;;;5076752;28;20176;-77
2021/08/19 00:42:15;;;;;;;8.87;3.50;;;18.10;99.90;;;;;;5079068;28;20574;-76
2021/08/19 00:44:44;;;;;;;4.73;2.67;;;18.10;99.90;;;;;;5078746;28;20208;-76
2021/08/19 00:47:10;;;;;;;6.73;3.10;;;18.20;99.90;;;;;;5078073;28;20188;-75
2021/08/19 00:49:43;;;;;;;6.73;3.23;;;18.10;99.90;;;;;;5079979;28;20218;-77
2021/08/19 00:52:14;;;;;;;6.20;3.00;;;18.00;99.90;;;;;;5078826;28;20179;-74
2021/08/19 00:54:41;;;;;;;7.47;3.57;;;18.00;99.90;;;;;;5079873;28;20191;-81
2021/08/19 00:57:07;;;;;;;5.83;3.33;;;18.10;99.90;;;;;;5074223;28;20169;-78
2021/08/19 00:59:34;;;;;;;6.97;3.17;;;18.00;99.90;;;;;;5056096;28;20186;-75
2021/08/19 01:02:02;;;;;;;6.10;2.97;;;18.10;99.90;;;;;;5073444;28;20327;-79
2021/08/19 01:04:32;;;;;;;6.07;3.00;;;18.10;99.90;;;;;;5055728;28;20243;-79
2021/08/19 01:07:01;;;;;;;7.10;3.23;;;18.20;99.90;;;;;;5073781;28;20251;-77
2021/08/19 01:09:28;;;;;;;4.77;2.90;;;18.10;99.90;;;;;;5073626;28;20232;-78
2021/08/19 01:11:54;;;;;;;5.47;3.10;;;18.10;99.90;;;;;;5073919;28;20179;-77
2021/08/19 01:14:19;;;;;;;6.03;3.20;;;18.10;99.90;;;;;;5074187;28;20164;-81
2021/08/19 01:16:45;;;;;;;5.00;3.20;;;18.10;99.90;;;;;;5074134;28;20180;-81
2021/08/19 01:19:16;;;;;;;5.97;3.33;;;18.10;99.90;;;;;;5074621;28;20202;-75
2021/08/19 01:21:42;;;;;;;6.37;2.83;;;18.10;99.90;;;;;;5074165;28;20175;-79
2021/08/19 01:24:08;;;;;;;6.73;3.90;;;18.10;99.90;;;;;;5073572;28;20165;-82
2021/08/19 01:26:35;;;;;;;5.73;3.10;;;18.10;99.90;;;;;;5073544;28;20173;-81
2021/08/19 01:29:04;;;;;;;6.80;3.07;;;18.20;99.90;;;;;;5079826;28;20170;-74
2021/08/19 01:31:31;;;;;;;7.50;3.63;;;18.10;99.90;;;;;;5079897;28;20593;-81
2021/08/19 01:33:57;;;;;;;7.37;2.83;;;18.10;99.90;;;;;;5073906;28;20221;-75
2021/08/19 01:36:23;;;;;;;7.10;3.50;;;18.10;99.90;;;;;;5074039;28;20204;-81
2021/08/19 01:38:50;;;;;;;6.63;3.40;;;18.10;99.90;;;;;;5075067;28;20199;-76
2021/08/19 01:41:16;;;;;;;6.80;3.30;;;18.00;99.90;;;;;;5075523;28;20181;-79
2021/08/19 01:43:44;;;;;;;6.23;3.57;;;18.00;99.90;;;;;;5075203;28;20235;-77
2021/08/19 01:46:11;;;;;;;5.93;3.50;;;18.00;99.90;;;;;;5075132;28;20668;-79
2021/08/19 01:48:39;;;;;;;6.73;3.23;;;18.00;99.90;;;;;;5078401;28;20192;-75
2021/08/19 01:51:06;;;;;;;5.83;3.50;;;18.00;99.90;;;;;;5086937;28;20173;-76
2021/08/19 01:53:32;;;;;;;6.73;3.20;;;17.90;99.90;;;;;;5078043;28;20183;-80
2021/08/19 01:55:58;;;;;;;5.63;3.40;;;18.00;99.90;;;;;;5074800;28;20236;-82
2021/08/19 01:58:24;;;;;;;6.57;3.70;;;18.00;99.90;;;;;;5074501;28;20208;-82
2021/08/19 02:00:50;;;;;;;6.27;3.67;;;18.00;99.90;;;;;;5076799;28;20177;-78
2021/08/19 02:03:16;;;;;;;5.03;3.33;;;18.00;99.90;;;;;;5075377;28;20200;-80
2021/08/19 02:05:43;;;;;;;6.90;4.03;;;18.00;99.90;;;;;;5073755;28;20213;-82
2021/08/19 02:08:09;;;;;;;6.10;3.63;;;17.90;99.90;;;;;;5074025;28;20164;-81
2021/08/19 02:10:36;;;;;;;7.97;4.00;;;17.80;99.90;;;;;;5075282;28;20192;-79
2021/08/19 02:13:03;;;;;;;8.60;4.00;;;17.80;99.90;;;;;;5072491;28;20256;-76
2021/08/19 02:15:28;;;;;;;7.40;3.60;;;17.70;99.90;;;;;;5072790;28;20625;-78
2021/08/19 02:17:54;;;;;;;7.37;4.13;;;17.70;99.90;;;;;;5073017;28;20171;-78
2021/08/19 02:20:20;;;;;;;7.97;4.33;;;17.80;99.90;;;;;;5072938;28;20168;-76
2021/08/19 02:22:49;;;;;;;6.83;4.17;;;17.80;99.90;;;;;;5072552;28;20612;-78
2021/08/19 02:25:16;;;;;;;6.40;3.80;;;17.80;99.90;;;;;;5073046;28;20258;-83
2021/08/19 02:27:43;;;;;;;7.60;4.00;;;17.90;99.90;;;;;;5072697;28;20219;-76
2021/08/19 02:30:10;;;;;;;9.20;4.37;;;17.80;99.90;;;;;;5073138;28;20168;-81
2021/08/19 02:32:37;;;;;;;6.47;4.10;;;17.80;99.90;;;;;;5078563;28;20177;-77
2021/08/19 02:35:03;;;;;;;6.33;3.90;;;17.80;99.90;;;;;;5087523;28;20160;-77
2021/08/19 02:37:28;;;;;;;9.27;4.50;;;17.80;99.90;;;;;;5095010;28;20165;-74
2021/08/19 02:39:55;;;;;;;7.63;4.17;;;17.80;99.90;;;;;;5085416;28;20174;-76
2021/08/19 02:42:20;;;;;;;7.33;4.10;;;17.90;99.90;;;;;;5079299;28;20229;-76
2021/08/19 02:44:46;;;;;;;6.73;4.47;;;17.80;99.90;;;;;;5061318;28;20641;-78
2021/08/19 02:47:12;;;;;;;9.03;4.70;;;17.90;99.90;;;;;;5077304;28;20216;-76
2021/08/19 02:49:39;;;;;;;8.13;4.73;;;17.90;99.90;;;;;;5055114;28;20173;-76
2021/08/19 02:52:05;;;;;;;7.77;4.40;;;17.90;99.90;;;;;;5072965;28;20199;-76
2021/08/19 02:54:30;;;;;;;7.33;4.20;;;17.90;99.90;;;;;;5072682;28;20164;-78
2021/08/19 02:56:56;;;;;;;9.00;4.60;;;18.00;99.90;;;;;;5072608;28;20539;-76
2021/08/19 02:59:22;;;;;;;8.47;4.97;;;17.90;99.90;;;;;;5072696;28;20214;-76
2021/08/19 03:01:48;;;;;;;7.83;4.47;;;17.80;99.90;;;;;;5072696;28;20639;-79
2021/08/19 03:04:13;;;;;;;6.93;4.40;;;17.80;99.90;;;;;;5087128;28;20160;-74
2021/08/19 03:06:39;;;;;;;6.43;4.47;;;17.80;99.90;;;;;;5095257;28;20186;-75
2021/08/19 03:09:04;;;;;;;7.17;4.57;;;17.80;99.90;;;;;;5090074;28;20624;-77
2021/08/19 03:11:30;;;;;;;6.83;4.50;;;17.90;99.90;;;;;;5081569;28;20230;-76
2021/08/19 03:13:56;;;;;;;8.47;4.83;;;17.80;99.90;;;;;;5078497;28;20196;-76
2021/08/19 03:16:21;;;;;;;10.07;4.30;;;18.00;99.90;;;;;;5072858;28;20535;-76
2021/08/19 03:18:47;;;;;;;7.90;4.37;;;17.80;99.90;;;;;;5072586;28;20188;-79
2021/08/19 03:21:12;;;;;;;9.70;4.23;;;17.80;99.90;;;;;;5072474;28;20181;-82
2021/08/19 03:23:38;;;;;;;7.67;4.67;;;17.90;99.90;;;;;;5073290;28;20625;-78
2021/08/19 03:26:06;;;;;;;5.90;4.10;;;17.80;99.90;;;;;;5058505;28;20212;-78
2021/08/19 03:28:32;;;;;;;6.87;4.23;;;17.90;99.90;;;;;;5085378;28;20180;-77
2021/08/19 03:30:58;;;;;;;7.20;4.27;;;17.90;99.90;;;;;;5101229;28;20175;-77
2021/08/19 03:33:24;;;;;;;7.70;5.00;;;17.90;99.90;;;;;;5101239;28;20169;-78
2021/08/19 03:35:50;;;;;;;7.63;4.07;;;17.70;99.90;;;;;;5098493;28;20221;-74
2021/08/19 03:38:16;;;;;;;6.87;3.77;;;17.70;99.90;;;;;;5084131;28;20165;-75
2021/08/19 03:40:41;;;;;;;7.47;4.43;;;17.80;99.90;;;;;;5101087;28;20173;-76
2021/08/19 03:43:07;;;;;;;7.00;3.77;;;17.80;99.90;;;;;;5091337;28;20249;-75
2021/08/19 03:45:36;;;;;;;5.97;3.70;;;17.80;99.90;;;;;;5084269;28;20212;-80
2021/08/19 03:48:24;;;;;;;8.03;3.90;;;17.80;99.90;;;;;;5083613;28;20203;-79
2021/08/19 03:50:52;;;;;;;6.30;3.87;;;17.80;99.90;;;;;;5061607;28;20538;-75
2021/08/19 03:53:21;;;;;;;5.60;3.40;;;17.70;99.90;;;;;;5075863;28;20241;-76
2021/08/19 03:55:49;;;;;;;7.77;3.90;;;17.70;99.90;;;;;;5075986;28;20162;-76
2021/08/19 03:58:15;;;;;;;5.23;3.40;;;17.80;99.90;;;;;;5075668;28;20687;-75
2021/08/19 04:00:41;;;;;;;6.40;3.83;;;17.80;99.90;;;;;;5075513;28;20244;-75
2021/08/19 04:03:07;;;;;;;6.33;3.67;;;17.80;99.90;;;;;;5075433;28;20177;-76
2021/08/19 04:05:32;;;;;;;9.50;4.43;;;17.80;99.90;;;;;;5074441;28;20211;-81
2021/08/19 04:07:58;;;;;;;7.63;4.00;;;17.70;99.90;;;;;;5075264;28;20173;-82
2021/08/19 04:10:24;;;;;;;8.70;3.93;;;17.70;99.90;;;;;;5074660;28;20176;-81
2021/08/19 04:12:49;;;;;;;6.87;3.83;;;17.70;99.90;;;;;;5075222;28;20165;-77
2021/08/19 04:15:15;;;;;;;8.03;3.80;;;17.80;99.90;;;;;;5075135;28;20168;-75
2021/08/19 04:17:41;;;;;;;7.97;3.60;;;17.80;99.90;;;;;;5075561;28;20558;-74
2021/08/19 04:20:07;;;;;;;10.47;4.40;;;17.70;99.90;;;;;;5074990;28;20243;-75
2021/08/19 04:22:34;;;;;;;7.30;3.60;;;17.80;99.90;;;;;;5087301;28;20182;-73
2021/08/19 04:24:59;;;;;;;7.30;4.13;;;17.70;99.90;;;;;;5093752;28;20263;-79
2021/08/19 04:27:25;;;;;;;5.63;3.20;;;17.60;99.90;;;;;;5059882;28;20232;-78
2021/08/19 04:29:51;;;;;;;7.30;3.70;;;17.70;99.90;;;;;;5075884;28;20246;-78
2021/08/19 04:32:16;;;;;;;8.30;4.13;;;17.60;99.90;;;;;;5074862;28;20180;-77
2021/08/19 04:34:42;;;;;;;8.93;3.90;;;17.70;99.90;;;;;;5074775;28;20197;-79
2021/08/19 04:37:08;;;;;;;5.47;3.70;;;17.60;99.90;;;;;;5057123;28;20176;-78
2021/08/19 04:39:34;;;;;;;5.50;3.60;;;17.60;99.90;;;;;;5076540;28;20226;-76
2021/08/19 04:41:59;;;;;;;5.13;3.90;;;17.60;99.90;;;;;;5081537;28;20183;-74
2021/08/19 04:44:25;;;;;;;6.33;3.80;;;17.60;99.90;;;;;;5093958;28;20203;-75
2021/08/19 04:46:51;;;;;;;6.40;3.70;;;17.50;99.90;;;;;;5089077;28;20191;-80
2021/08/19 04:49:16;;;;;;;6.63;3.97;;;17.50;99.90;;;;;;5079826;28;20207;-76
2021/08/19 04:51:43;;;;;;;6.70;4.30;;;17.50;99.90;;;;;;5057413;28;20190;-80
2021/08/19 04:54:09;;;;;;;7.00;3.57;;;17.50;99.90;;;;;;5074206;28;20640;-76
2021/08/19 04:56:38;;;;;;;8.13;3.90;;;17.50;99.90;;;;;;5074202;28;20645;-77
2021/08/19 04:59:09;;;;;;;5.47;3.70;;;17.40;99.90;;;;;;5074300;28;20168;-81
2021/08/19 05:01:35;;;;;;;8.40;4.20;;;17.40;99.90;;;;;;5073765;28;20183;-76
2021/08/19 05:04:02;;;;;;;6.43;4.00;;;17.50;99.90;;;;;;5073938;28;20168;-78
2021/08/19 05:06:29;;;;;;;9.93;4.40;;;17.40;99.90;;;;;;5073776;28;20207;-76
2021/08/19 05:08:56;;;;;;;7.43;4.50;;;17.40;99.90;;;;;;5074617;28;20318;-77
2021/08/19 05:11:23;;;;;;;7.37;4.23;;;17.50;99.90;;;;;;5074219;28;20176;-82
2021/08/19 05:13:50;;;;;;;7.13;4.30;;;17.50;99.90;;;;;;5073739;28;20179;-76
2021/08/19 05:16:16;;;;;;;6.70;4.20;;;17.60;99.90;;;;;;5073702;28;20302;-80
2021/08/19 05:18:43;;;;;;;8.33;4.50;;;17.50;99.90;;;;;;5073828;28;20259;-81
2021/08/19 05:21:11;;;;;;;8.73;4.20;;;17.50;99.90;;;;;;5073719;28;20255;-81
2021/08/19 05:23:37;;;;;;;6.93;3.90;;;17.60;99.90;;;;;;5073912;28;20247;-80
2021/08/19 05:26:03;;;;;;;6.67;3.83;;;17.60;99.90;;;;;;5073331;28;20307;-82
2021/08/19 05:28:29;;;;;;;6.43;4.57;;;17.60;99.90;;;;;;5073967;28;20224;-82
2021/08/19 05:30:55;;;;;;;7.70;4.63;;;17.70;99.90;;;;;;5073998;28;20207;-81
2021/08/19 05:33:20;;;;;;;9.73;5.53;;;17.60;99.90;;;;;;5073953;28;20183;-78
2021/08/19 05:35:46;;;;;;;9.27;4.57;;;17.60;99.90;;;;;;5076977;28;20157;-79
2021/08/19 05:38:11;;;;;;;10.43;5.70;;;17.60;99.90;;;;;;5077680;28;20655;-81
2021/08/19 05:40:37;;;;;;;11.93;4.70;;;17.60;99.90;;;;;;5074438;28;20172;-82
2021/08/19 05:43:03;;;;;;;7.77;4.73;;;17.60;99.90;;;;;;5074043;28;20171;-82
2021/08/19 05:45:29;;;;;;;8.80;4.43;;;17.60;99.90;;;;;;5074284;28;20204;-76
2021/08/19 05:47:54;;;;;;;8.13;4.63;;;17.60;99.90;;;;;;5073098;28;20185;-81
2021/08/19 05:50:20;;;;;;;8.53;4.73;;;17.50;99.90;;;;;;5074361;28;20164;-81
2021/08/19 05:52:46;;;;;;;7.30;4.70;;;17.60;99.90;;;;;;5074228;28;20161;-76
2021/08/19 05:55:12;;;;;;;9.33;4.43;;;17.70;99.90;;;;;;5074564;28;20183;-80
2021/08/19 05:57:37;;;;;;;7.70;3.87;;;17.60;99.90;;;;;;5074266;28;20175;-81
2021/08/19 06:00:04;;;;;;;9.17;4.57;;;17.60;99.90;;;;;;5073293;28;20187;-77
2021/08/19 06:02:30;;;;;;;6.27;4.30;;;17.70;99.90;;;;;;5073346;28;20268;-78
2021/08/19 06:04:56;;;;;;;5.83;4.23;;;17.70;99.90;;;;;;5073135;28;20719;-77
2021/08/19 06:07:21;;;;;;;10.57;3.53;;;17.60;99.90;;;;;;5073000;28;20233;-77
2021/08/19 06:09:47;;;;;;;6.60;3.83;;;17.60;99.90;;;;;;5073366;28;20251;-81
2021/08/19 06:12:13;;;;;;;7.00;3.70;;;17.50;99.90;;;;;;5073187;28;20168;-81
2021/08/19 06:14:39;;;;;;;7.63;3.50;;;17.50;99.90;;;;;;5073376;28;20249;-82
2021/08/19 06:17:05;;;;;;;5.33;3.40;;;17.70;99.90;;;;;;5073370;28;20616;-83
2021/08/19 06:19:31;;;;;;;7.60;3.30;;;17.60;99.90;;;;;;5073254;28;20249;-78
2021/08/19 06:21:56;;;;;;;6.33;3.37;;;17.60;99.90;;;;;;5091161;28;20164;-75
2021/08/19 06:24:22;;;;;;;6.13;3.50;;;17.60;99.90;;;;;;5089547;28;20172;-80
2021/08/19 06:26:48;;;;;;;5.37;3.37;;;17.50;99.90;;;;;;5085681;28;20176;-76
2021/08/19 06:29:14;;;;;;;7.93;3.47;;;17.60;99.90;;;;;;5086505;28;20224;-76
2021/08/19 06:31:39;;;;;;;4.33;3.10;;;17.40;99.90;;;;;;5056668;28;20213;-81
2021/08/19 06:34:05;;;;;;;8.53;2.93;;;17.50;99.90;;;;;;5073423;28;20184;-74
2021/08/19 06:36:31;;;;;;;4.87;2.83;;;17.50;99.90;;;;;;5073061;28;20180;-81
2021/08/19 06:38:56;;;;;;;5.33;2.80;;;17.50;99.90;;;;;;5073333;28;20617;-75
2021/08/19 06:41:24;;;;;;;4.87;2.60;;;17.40;99.90;;;;;;5069535;28;20270;-82
2021/08/19 06:43:50;;;;;;;4.60;2.53;;;17.40;99.90;;;;;;5054337;28;20176;-82
2021/08/19 06:46:15;;;;;;;4.73;2.40;;;17.40;99.90;;;;;;5058165;28;20208;-76
2021/08/19 06:48:42;;;;;;;5.00;2.23;;;17.40;99.90;;;;;;5086638;28;20202;-77
2021/08/19 06:51:08;;;;;;;6.83;2.33;;;17.50;99.90;;;;;;5094909;28;20582;-82
2021/08/19 06:53:33;;;;;;;5.57;2.10;;;17.60;99.90;;;;;;5075370;28;20169;-77
2021/08/19 06:55:59;;;;;;;5.23;2.23;;;17.50;99.90;;;;;;5078471;28;20169;-78
2021/08/19 06:58:25;;;;;;;2.87;2.10;;;17.60;99.90;;;;;;5073441;28;20171;-82
2021/08/19 07:00:50;;;;;;;5.27;2.13;;;17.60;99.90;;;;;;5077704;28;20172;-81
2021/08/19 07:03:16;;;;;;;6.10;2.10;;;17.50;99.90;;;;;;5076640;28;20565;-77
2021/08/19 07:05:43;;;;;;;5.23;2.07;;;17.50;99.90;;;;;;5077173;28;20200;-82
2021/08/19 07:08:10;;;;;;;6.07;2.63;;;17.40;99.90;;;;;;5077257;28;20171;-77
2021/08/19 07:10:36;;;;;;;5.30;2.10;;;17.60;99.90;;;;;;5078425;28;20221;-82
2021/08/19 07:13:03;;;;;;;4.80;2.10;;;17.70;99.90;;;;;;5077010;28;20168;-77
2021/08/19 07:15:29;;;;;;;4.60;2.23;;;17.80;99.90;;;;;;5085285;28;20180;-76
2021/08/19 07:17:56;;;;;;;7.27;2.20;;;17.80;99.90;;;;;;5095585;28;20168;-76
2021/08/19 07:20:21;;;;;;;6.63;2.40;;;17.80;99.90;;;;;;5079308;28;20183;-78
2021/08/19 07:22:47;;;;;;;4.17;2.20;;;17.80;99.90;;;;;;5076358;28;20161;-81
2021/08/19 07:25:20;;;;;;;4.63;2.20;;;17.90;99.90;;;;;;5076152;28;20679;-82
2021/08/19 07:27:46;;;;;;;4.07;2.30;;;18.00;99.00;;;;;;5076235;28;20207;-75
2021/08/19 07:30:12;;;;;;;6.50;2.57;;;18.00;99.30;;;;;;5077704;28;20164;-81
2021/08/19 07:32:38;;;;;;;3.93;2.10;;;18.00;99.30;;;;;;5083538;28;20173;-79
2021/08/19 07:35:05;;;;;;;5.70;2.67;;;18.00;99.30;;;;;;5089731;28;20202;-77
2021/08/19 07:37:30;;;;;;;5.30;2.83;;;17.80;99.40;;;;;;5088020;28;20194;-77
2021/08/19 07:39:57;;;;;;;6.60;2.67;;;17.90;99.70;;;;;;5084181;28;20640;-81
2021/08/19 07:42:22;;;;;;;5.17;2.47;;;17.90;99.00;;;;;;5080760;28;20173;-78
2021/08/19 07:44:48;;;;;;;6.60;3.13;;;18.00;99.00;;;;;;5078403;28;20605;-84
2021/08/19 07:47:14;;;;;;;6.90;3.10;;;18.10;98.60;;;;;;5076791;28;20278;-80
2021/08/19 07:49:40;;;;;;;6.27;3.23;;;18.00;98.90;;;;;;5076800;28;20682;-79
2021/08/19 07:52:06;;;;;;;5.80;3.00;;;18.00;98.80;;;;;;5076478;28;20655;-82
2021/08/19 07:54:31;;;;;;;4.77;3.00;;;17.90;98.90;;;;;;5076580;28;20167;-83
2021/08/19 07:56:57;;;;;;;5.43;3.50;;;17.90;98.50;;;;;;5075818;28;20180;-84
2021/08/19 07:59:23;;;;;;;6.33;3.27;;;18.00;98.50;;;;;;5076138;28;20176;-86
2021/08/19 08:01:48;;;;;;;7.30;3.83;;;18.00;98.40;;;;;;5075403;28;20191;-79
2021/08/19 08:04:14;;;;;;;5.07;3.63;;;17.90;98.00;;;;;;5074754;28;20806;-81
2021/08/19 08:06:40;;;;;;;5.40;3.67;;;18.00;98.00;;;;;;5083063;28;20176;-82
2021/08/19 08:09:07;;;;;;;5.53;3.40;;;18.00;97.40;;;;;;5089405;28;20160;-76
2021/08/19 08:11:33;;;;;;;5.07;3.30;;;18.00;97.10;;;;;;5089799;28;20168;-77
2021/08/19 08:14:01;;;;;;;7.80;3.83;;;18.10;97.10;;;;;;5092132;28;20164;-78
2021/08/19 08:16:27;;;;;;;4.80;3.70;;;18.20;96.80;;;;;;5091111;28;20164;-76
2021/08/19 08:18:54;;;;;;;5.83;3.73;;;18.30;96.60;;;;;;5092294;28;20264;-75
2021/08/19 08:21:20;;;;;;;5.73;3.60;;;18.20;96.90;;;;;;5090800;28;20168;-79
2021/08/19 08:23:45;;;;;;;7.90;3.80;;;18.20;97.00;;;;;;5091823;28;20188;-76
2021/08/19 08:26:12;;;;;;;5.83;3.90;;;18.20;96.90;;;;;;5071042;28;20243;-82
2021/08/19 08:28:38;;;;;;;5.53;3.33;;;18.30;97.30;;;;;;5073060;28;20185;-76
2021/08/19 08:31:04;;;;;;;6.43;3.17;;;18.30;96.90;;;;;;5091518;28;20172;-77
2021/08/19 08:33:32;;;;;;;5.23;3.40;;;18.40;96.70;;;;;;5091156;28;20159;-81
2021/08/19 08:36:01;;;;;;;5.20;3.13;;;18.50;96.20;;;;;;5089999;28;20195;-75
2021/08/19 08:38:28;;;;;;;8.63;3.30;;;18.50;95.30;;;;;;5081440;28;20613;-83
2021/08/19 08:40:54;;;;;;;6.40;3.47;;;18.60;94.90;;;;;;5076784;28;20193;-80
2021/08/19 08:43:21;;;;;;;8.57;3.60;;;18.70;95.10;;;;;;5076934;28;20164;-80
2021/08/19 08:45:49;;;;;;;5.53;3.43;;;18.70;93.90;;;;;;5076624;28;20196;-81
2021/08/19 08:48:22;;;;;;;5.30;3.00;;;18.70;93.20;;;;;;5076904;28;20172;-79
2021/08/19 08:50:51;;;;;;;5.17;2.90;;;18.70;93.40;;;;;;5075300;28;20247;-75
2021/08/19 08:53:16;;;;;;;5.87;2.83;;;18.90;91.90;;;;;;5068500;28;20199;-77
2021/08/19 08:55:43;;;;;;;6.27;2.90;;;19.00;91.10;;;;;;5055959;28;20637;-77
2021/08/19 08:58:09;;;;;;;3.70;2.53;;;18.90;91.00;;;;;;5056042;28;20193;-84
2021/08/19 09:00:36;;;;;;;9.77;6.20;;;19.00;91.70;;;;;;5055999;28;20202;-78
2021/08/19 09:03:01;;;;;;;37.37;20.47;;;19.00;91.00;;;;;;5059964;28;20179;-76
2021/08/19 09:05:31;;;;;;;6.27;3.70;;;18.90;90.80;;;;;;5077760;28;20201;-76
2021/08/19 09:07:59;;;;;;;8.33;2.57;;;18.70;90.60;;;;;;5077185;28;20162;-75
2021/08/19 09:10:32;;;;;;;4.37;1.90;;;18.70;90.60;;;;;;5077668;28;20156;-76
2021/08/19 09:13:09;;;;;;;3.90;2.10;;;18.80;86.60;;;;;;5078536;28;20174;-76
2021/08/19 09:15:35;;;;;;;8.13;3.93;;;18.60;87.40;;;;;;5071125;28;20229;-76
2021/08/19 09:18:07;;;;;;;5.93;2.50;;;18.60;90.40;;;;;;5065074;28;20168;-76
2021/08/19 09:20:58;;;;;;;4.93;2.43;;;18.80;89.90;;;;;;5063729;28;20169;-77
2021/08/19 09:23:43;;;;;;;5.30;2.57;;;18.80;89.20;;;;;;5055358;28;20180;-82
2021/08/19 09:26:49;;;;;;;5.77;3.40;;;19.00;85.60;;;;;;5054513;28;20209;-82
2021/08/19 09:29:30;;;;;;;5.80;2.70;;;19.20;83.70;;;;;;5055537;28;20176;-75
2021/08/19 09:32:13;;;;;;;5.90;2.10;;;19.20;79.50;;;;;;5055481;28;20180;-77
2021/08/19 09:34:42;;;;;;;3.90;2.10;;;19.10;80.90;;;;;;5037724;28;20171;-77
2021/08/19 09:37:13;;;;;;;4.67;2.13;;;19.00;81.40;;;;;;5053573;28;20573;-77
2021/08/19 09:39:42;;;;;;;6.53;2.30;;;18.90;80.90;;;;;;5055100;28;20176;-77
2021/08/19 09:42:08;;;;;;;5.17;2.30;;;18.80;83.20;;;;;;5055896;28;20161;-81
2021/08/19 09:44:46;;;;;;;5.37;2.53;;;18.60;84.80;;;;;;5056666;28;20219;-78
2021/08/19 09:47:32;;;;;;;4.50;2.03;;;18.70;86.50;;;;;;5057080;28;20184;-78
2021/08/19 09:50:12;;;;;;;6.10;2.30;;;18.80;80.50;;;;;;5057536;28;20172;-75
2021/08/19 09:52:38;;;;;;;4.83;2.33;;;18.60;85.20;;;;;;5060116;28;20161;-77
2021/08/19 09:55:22;;;;;;;5.10;2.00;;;18.60;81.90;;;;;;5069032;28;20576;-76
2021/08/19 09:57:48;;;;;;;4.60;2.30;;;18.70;80.90;;;;;;5057489;28;20648;-75
2021/08/19 10:00:31;;;;;;;4.73;2.70;;;18.70;77.90;;;;;;5071276;28;20169;-77
2021/08/19 10:02:59;;;;;;;5.40;2.40;;;18.70;79.80;;;;;;5057983;28;20170;-77
2021/08/19 10:05:25;;;;;;;7.20;2.93;;;18.90;78.00;;;;;;5058697;28;20634;-80
2021/08/19 10:07:52;;;;;;;4.23;2.70;;;19.10;75.50;;;;;;5054324;28;20184;-77
2021/08/19 10:10:18;;;;;;;6.10;2.50;;;19.30;74.60;;;;;;5054736;28;20177;-77
2021/08/19 10:12:45;;;;;;;5.60;2.30;;;19.40;71.10;;;;;;5059510;28;20182;-77
2021/08/19 10:15:12;;;;;;;4.53;2.47;;;19.50;64.00;;;;;;5063927;28;20165;-78
2021/08/19 10:17:44;;;;;;;4.07;2.20;;;19.20;66.10;;;;;;5068290;28;20279;-77
2021/08/19 10:20:14;;;;;;;3.67;2.40;;;19.00;67.80;;;;;;5059622;28;20161;-77
2021/08/19 10:22:40;;;;;;;5.73;2.00;;;19.00;68.60;;;;;;5037245;28;20209;-76
2021/08/19 10:25:07;;;;;;;7.07;2.20;;;19.10;66.40;;;;;;5053159;28;20247;-78
2021/08/19 10:27:33;;;;;;;4.97;2.27;;;19.10;68.10;;;;;;5057137;28;20190;-81
2021/08/19 10:30:03;;;;;;;6.53;2.50;;;19.20;68.20;;;;;;5062556;28;20264;-78
2021/08/19 10:32:32;;;;;;;4.43;2.63;;;19.30;66.70;;;;;;5054097;28;20177;-77
2021/08/19 10:34:58;;;;;;;3.90;2.00;;;19.50;61.60;;;;;;5057780;28;20165;-84
2021/08/19 10:37:47;;;;;;;3.20;1.53;;;19.50;60.60;;;;;;5058067;28;20264;-76
2021/08/19 10:40:25;;;;;;;1.77;1.13;;;19.40;58.00;;;;;;5046509;28;20173;-77
2021/08/19 10:42:53;;;;;;;2.43;1.13;;;19.20;56.70;;;;;;5040974;28;20167;-76
2021/08/19 10:45:27;;;;;;;3.83;1.67;;;19.20;59.80;;;;;;5058565;28;20654;-78
2021/08/19 10:48:13;;;;;;;3.37;1.40;;;19.30;61.80;;;;;;5058080;28;20258;-78
2021/08/19 10:50:43;;;;;;;2.57;1.47;;;19.10;58.20;;;;;;5027644;28;20177;-80
2021/08/19 10:53:27;;;;;;;3.27;1.70;;;19.00;61.60;;;;;;5058496;28;20177;-77
2021/08/19 10:55:55;;;;;;;5.30;1.83;;;19.10;61.30;;;;;;5057042;28;20226;-78
2021/08/19 10:58:22;;;;;;;4.17;1.90;;;19.10;60.60;;;;;;5057052;28;20172;-76
2021/08/19 11:00:48;;;;;;;3.37;1.50;;;19.30;60.90;;;;;;5057249;28;20169;-78
2021/08/19 11:03:35;;;;;;;3.43;1.80;;;19.30;59.50;;;;;;5057190;28;20177;-76
2021/08/19 11:06:05;;;;;;;5.17;1.80;;;19.10;61.70;;;;;;5056628;28;20204;-80
2021/08/19 11:08:45;;;;;;;4.50;1.70;;;19.10;63.40;;;;;;5056240;28;20237;-78
2021/08/19 11:11:13;;;;;;;4.50;2.30;;;19.00;65.80;;;;;;5055060;28;20522;-76
2021/08/19 11:13:40;;;;;;;3.63;1.73;;;19.00;66.00;;;;;;5056684;28;20172;-76
2021/08/19 11:16:10;;;;;;;3.43;1.97;;;19.10;68.70;;;;;;5056366;28;20167;-76
2021/08/19 11:18:37;;;;;;;4.80;1.80;;;19.40;65.30;;;;;;5055862;28;20166;-78
2021/08/19 11:21:05;;;;;;;5.47;2.37;;;19.50;59.60;;;;;;5057499;28;20176;-77
2021/08/19 11:23:43;;;;;;;6.57;2.30;;;19.40;57.70;;;;;;5057099;28;20642;-77
2021/08/19 11:26:10;;;;;;;4.83;2.23;;;19.30;60.40;;;;;;5062079;28;20287;-75
2021/08/19 11:28:44;;;;;;;3.90;2.23;;;19.30;59.50;;;;;;5060665;28;20182;-76
2021/08/19 11:31:15;;;;;;;3.83;2.40;;;19.20;60.70;;;;;;5056568;28;20203;-79
2021/08/19 11:33:41;;;;;;;6.63;2.60;;;19.40;59.80;;;;;;5056331;28;20539;-77
2021/08/19 11:36:08;;;;;;;4.47;2.20;;;19.60;58.80;;;;;;5057166;28;20173;-84
2021/08/19 11:38:34;;;;;;;4.47;2.27;;;19.40;57.40;;;;;;5039429;28;20653;-82
2021/08/19 11:41:12;;;;;;;5.47;2.13;;;19.50;58.80;;;;;;5055922;28;20165;-79
2021/08/19 11:43:38;;;;;;;7.60;2.50;;;19.70;57.50;;;;;;5056412;28;20165;-81
2021/08/19 11:46:07;;;;;;;4.20;2.60;;;19.70;55.60;;;;;;5055865;28;20653;-76
2021/08/19 11:48:35;;;;;;;3.03;1.90;;;19.70;53.50;;;;;;5055730;28;20179;-76
2021/08/19 11:51:04;;;;;;;3.23;1.83;;;19.50;56.10;;;;;;5055996;28;20200;-77
2021/08/19 11:53:30;;;;;;;4.17;2.20;;;19.30;61.00;;;;;;5056054;28;20161;-77
2021/08/19 11:56:09;;;;;;;5.93;2.10;;;19.30;62.20;;;;;;5056349;28;20262;-79
2021/08/19 11:58:35;;;;;;;3.97;2.10;;;19.30;60.20;;;;;;5056189;28;20157;-78
2021/08/19 12:01:11;;;;;;;5.60;2.00;;;19.30;61.20;;;;;;5057272;28;20629;-84
2021/08/19 12:03:39;;;;;;;5.13;2.20;;;19.30;61.00;;;;;;5055345;28;20184;-80
2021/08/19 12:06:18;;;;;;;4.60;2.00;;;19.30;60.20;;;;;;5056243;28;20228;-79
2021/08/19 12:08:51;;;;;;;5.77;2.33;;;19.20;61.40;;;;;;5056993;28;20165;-83
2021/08/19 12:11:26;;;;;;;5.47;2.37;;;19.00;63.20;;;;;;5057275;28;20235;-80
2021/08/19 12:13:53;;;;;;;4.37;2.07;;;19.00;66.00;;;;;;5057199;28;20192;-76
2021/08/19 12:16:20;;;;;;;4.03;2.50;;;19.10;64.10;;;;;;5056747;28;20169;-82
2021/08/19 12:19:12;;;;;;;3.80;2.33;;;19.20;63.00;;;;;;5056724;28;20232;-76
2021/08/19 12:21:54;;;;;;;3.43;1.93;;;19.20;62.50;;;;;;5039159;28;20493;-84
2021/08/19 12:24:33;;;;;;;6.97;2.43;;;19.10;65.10;;;;;;5038129;28;20177;-83
2021/08/19 12:27:16;;;;;;;5.87;2.20;;;19.00;68.70;;;;;;5055616;28;20203;-78
2021/08/19 12:29:47;;;;;;;4.07;2.33;;;19.10;68.80;;;;;;5055483;28;20172;-81
2021/08/19 12:32:28;;;;;;;4.20;2.57;;;19.30;67.50;;;;;;5055352;28;20174;-76
2021/08/19 12:35:06;;;;;;;5.00;2.57;;;19.30;65.80;;;;;;5056921;28;20179;-76
2021/08/19 12:37:34;;;;;;;4.40;2.50;;;19.10;65.90;;;;;;5068456;28;20160;-74
2021/08/19 12:40:15;;;;;;;3.60;2.40;;;19.10;67.70;;;;;;5063723;28;20183;-77
2021/08/19 12:42:43;;;;;;;6.50;2.30;;;19.10;66.20;;;;;;5042108;28;20264;-78
2021/08/19 12:45:14;;;;;;;4.70;2.20;;;19.00;67.60;;;;;;5056068;28;20640;-77
2021/08/19 12:47:42;;;;;;;4.40;2.50;;;19.10;67.80;;;;;;5058529;28;20189;-80
2021/08/19 12:50:09;;;;;;;7.20;3.27;;;19.10;68.90;;;;;;5063204;28;20173;-77